Sunday, October 22, 2017, 5:07 PM EDT
Back to Local

KCDW, Caldwell Essex County Airport

Location: Fairfield, NJ, United States Lat: 40.883
Local Time: 5:07 PM EDT (21:07 GMT) Lon: -74.283
Time Zone: US/Eastern Elev: 173 ft

Show me the last for .
Show Decoded

2017-10-22 16:53 METAR KCDW 222053Z 13006KT 10SM CLR 22/08 A3034 RMK AO2 SLP281 T02220083 56007 =
2017-10-22 15:53 METAR KCDW 221953Z 16009KT 10SM CLR 24/10 A3035 RMK AO2 SLP283 T02390100 =
2017-10-22 14:53 METAR KCDW 221853Z 19007KT 10SM CLR 24/07 A3035 RMK AO2 SLP282 T02440072 =
2017-10-22 13:53 METAR KCDW 221753Z 00000KT 10SM CLR 24/07 A3037 RMK AO2 SLP288 T02440072 10244
                 20067 58015 =
2017-10-22 12:53 METAR KCDW 221653Z VRB04KT 10SM CLR 24/07 A3039 RMK AO2 SLP295 T02390072 =
2017-10-22 11:53 METAR KCDW 221553Z 00000KT 10SM CLR 22/10 A3040 RMK AO2 SLP301 T02220100 =
2017-10-22 10:53 METAR KCDW 221453Z 00000KT 10SM CLR 18/11 A3041 RMK AO2 SLP303 T01780106 58003 =
2017-10-22 09:53 METAR KCDW 221353Z 00000KT 10SM CLR 13/09 A3042 RMK AO2 SLP306 T01330094 =
2017-10-22 08:53 METAR KCDW 221253Z 00000KT 10SM CLR 10/08 A3043 RMK AO2 SLP310 T01000083 =
2017-10-22 07:53 METAR KCDW 221153Z 00000KT 10SM CLR 07/07 A3042 RMK AO2 SLP306 T00670067 10083
                 20061 53017 =
2017-10-22 06:53 METAR KCDW 221053Z 00000KT 10SM CLR 06/06 A3040 RMK AO2 SLP298 T00610061 =
2017-10-22 05:53 METAR KCDW 220953Z 00000KT 10SM CLR 07/07 A3039 RMK AO2 SLP296 T00670067 =
2017-10-22 04:53 METAR KCDW 220853Z 00000KT 10SM CLR 07/07 A3037 RMK AO2 SLP290 T00720072 53000 =
2017-10-22 03:53 METAR KCDW 220753Z 00000KT 10SM CLR 07/07 A3037 RMK AO2 SLP289 T00720072 =
2017-10-22 02:53 METAR KCDW 220653Z 00000KT 10SM CLR 08/08 A3036 RMK AO2 SLP287 T00780078 =
2017-10-22 01:53 METAR KCDW 220553Z 00000KT 10SM CLR 08/08 A3037 RMK AO2 SLP289 T00830083 10150
                 20083 51001 =
2017-10-22 00:53 METAR KCDW 220453Z 00000KT 10SM CLR 09/09 A3037 RMK AO2 SLP289 T00940089
                 402610056 =
2017-10-21 23:53 METAR KCDW 220353Z 00000KT 10SM CLR 10/09 A3037 RMK AO2 SLP290 T01000089 =
2017-10-21 22:53 METAR KCDW 220253Z 00000KT 10SM CLR 11/09 A3037 RMK AO2 SLP288 T01110089 50007 =
2017-10-21 21:53 METAR KCDW 220153Z AUTO 00000KT 10SM CLR 12/09 A3037 RMK AO2 SLP288 T01220089
                 TSNO =
2017-10-21 20:53 METAR KCDW 220053Z 00000KT 10SM CLR 13/08 A3036 RMK AO2 SLP286 T01330083 =
2017-10-21 19:53 METAR KCDW 212353Z 00000KT 10SM CLR 15/09 A3034 RMK AO2 SLP281 T01500089 10261
                 20150 51014 =
2017-10-21 18:53 METAR KCDW 212253Z 00000KT 10SM CLR 18/09 A3034 RMK AO2 SLP278 T01780089 =
2017-10-21 17:53 METAR KCDW 212153Z 00000KT 10SM CLR 22/07 A3032 RMK AO2 SLP272 T02170072 =

Support USWX by starting your Amazon purchase here.